createdAt,value
2019-02-19T00:00:17.947Z,65.84
2019-02-19T00:00:49.148Z,66.03
2019-02-19T00:01:20.361Z,66.34
2019-02-19T00:01:51.577Z,65.92
2019-02-19T00:02:22.771Z,65.84
2019-02-19T00:02:53.976Z,65.76
2019-02-19T00:03:25.212Z,65.75
2019-02-19T00:03:56.483Z,65.70
2019-02-19T00:04:27.725Z,65.62
2019-02-19T00:04:58.934Z,65.58
2019-02-19T00:05:30.146Z,65.55
2019-02-19T00:06:01.359Z,65.55
2019-02-19T00:06:32.570Z,65.55
2019-02-19T00:07:03.780Z,65.56
2019-02-19T00:07:35.032Z,65.62
2019-02-19T00:08:06.265Z,65.71
2019-02-19T00:08:37.550Z,65.77
2019-02-19T00:09:09.154Z,65.91
2019-02-19T00:09:40.376Z,66.09
2019-02-19T00:10:11.606Z,66.17
2019-02-19T00:10:42.842Z,66.43
2019-02-19T00:11:14.091Z,66.62
2019-02-19T00:11:45.340Z,66.77
2019-02-19T00:12:16.550Z,66.90
2019-02-19T00:12:47.766Z,66.99
2019-02-19T00:13:18.973Z,67.20
2019-02-19T00:13:50.194Z,67.32
2019-02-19T00:14:21.424Z,67.44
2019-02-19T00:14:52.636Z,67.70
2019-02-19T00:15:23.842Z,67.91
2019-02-19T00:15:55.060Z,68.09
2019-02-19T00:16:26.343Z,68.17
2019-02-19T00:16:57.553Z,68.11
2019-02-19T00:17:28.768Z,68.19
2019-02-19T00:17:59.975Z,68.13
2019-02-19T00:18:31.183Z,68.13
2019-02-19T00:19:02.383Z,68.19
2019-02-19T00:19:33.654Z,68.12
2019-02-19T00:20:04.858Z,67.91
2019-02-19T00:20:36.060Z,67.84
2019-02-19T00:21:07.260Z,67.85
2019-02-19T00:21:38.509Z,67.92
2019-02-19T00:22:09.707Z,67.89
2019-02-19T00:22:40.917Z,67.93
2019-02-19T00:23:12.131Z,67.98
2019-02-19T00:23:43.363Z,68.01
2019-02-19T00:24:14.626Z,68.08
2019-02-19T00:24:45.891Z,68.12
2019-02-19T00:25:17.093Z,68.13
2019-02-19T00:25:48.312Z,68.16
2019-02-19T00:26:19.523Z,68.15
2019-02-19T00:26:50.746Z,68.15
2019-02-19T00:27:21.956Z,68.22
2019-02-19T00:27:53.159Z,68.22
2019-02-19T00:28:24.382Z,68.26
2019-02-19T00:28:55.582Z,68.27
2019-02-19T00:29:26.798Z,68.26
2019-02-19T00:29:58.064Z,68.39
2019-02-19T00:30:29.304Z,68.48
2019-02-19T00:31:00.520Z,68.54
2019-02-19T00:31:31.727Z,68.53
2019-02-19T00:32:02.948Z,68.50
2019-02-19T00:32:34.152Z,68.45
2019-02-19T00:33:05.359Z,68.52
2019-02-19T00:33:36.594Z,68.52
2019-02-19T00:34:07.824Z,68.43
2019-02-19T00:34:39.041Z,68.35
2019-02-19T00:35:10.307Z,68.21
2019-02-19T00:35:41.538Z,68.22
2019-02-19T00:36:12.749Z,68.17
2019-02-19T00:36:43.956Z,68.18
2019-02-19T00:37:15.184Z,68.19
2019-02-19T00:37:46.438Z,68.19
2019-02-19T00:38:17.681Z,68.16
2019-02-19T00:38:48.930Z,68.14
2019-02-19T00:39:20.176Z,68.21
2019-02-19T00:39:51.377Z,68.28
2019-02-19T00:40:22.587Z,68.24
2019-02-19T00:40:53.790Z,68.26
2019-02-19T00:41:26.012Z,68.37
2019-02-19T00:41:57.222Z,68.55
2019-02-19T00:42:28.432Z,68.67
2019-02-19T00:42:59.682Z,68.29
2019-02-19T00:43:30.883Z,68.00
2019-02-19T00:44:02.078Z,67.86
2019-02-19T00:44:33.284Z,67.84
2019-02-19T00:45:04.500Z,67.84
2019-02-19T00:45:35.719Z,67.87
2019-02-19T00:46:06.915Z,67.76
2019-02-19T00:46:38.139Z,67.81
2019-02-19T00:47:09.347Z,67.84
2019-02-19T00:47:40.564Z,67.82
2019-02-19T00:48:11.784Z,67.78
2019-02-19T00:48:43.019Z,67.79
2019-02-19T00:49:14.269Z,67.71
2019-02-19T00:49:45.484Z,67.62
2019-02-19T00:50:16.729Z,67.53
2019-02-19T00:50:47.953Z,67.43
2019-02-19T00:51:19.210Z,67.37
2019-02-19T00:51:50.432Z,67.28
2019-02-19T00:52:21.666Z,67.28
2019-02-19T00:52:52.907Z,67.22
2019-02-19T00:53:24.106Z,67.20
2019-02-19T00:53:58.173Z,67.18
2019-02-19T00:54:29.428Z,67.21
2019-02-19T00:55:00.723Z,67.67
2019-02-19T00:55:33.893Z,67.58
2019-02-19T00:56:09.897Z,68.03
2019-02-19T00:56:41.091Z,68.23
2019-02-19T00:57:12.352Z,67.36
2019-02-19T00:57:43.604Z,66.98
2019-02-19T00:58:14.818Z,66.72
2019-02-19T00:58:46.415Z,66.84
2019-02-19T00:59:17.621Z,66.70
2019-02-19T00:59:48.889Z,66.50
2019-02-19T01:00:21.295Z,66.51
2019-02-19T01:00:54.338Z,66.72
2019-02-19T01:01:25.567Z,66.62
2019-02-19T01:01:56.781Z,66.53
2019-02-19T01:02:29.861Z,66.54
2019-02-19T01:03:02.378Z,66.62
2019-02-19T01:03:33.597Z,66.57
2019-02-19T01:04:04.801Z,66.53
2019-02-19T01:04:36.051Z,66.52
2019-02-19T01:05:07.256Z,66.45
2019-02-19T01:05:38.511Z,66.41
2019-02-19T01:06:09.727Z,66.51
2019-02-19T01:06:42.875Z,66.47
2019-02-19T01:07:14.624Z,66.50
2019-02-19T01:07:45.830Z,66.50
2019-02-19T01:08:17.048Z,66.49
2019-02-19T01:08:48.257Z,66.40
2019-02-19T01:09:19.517Z,66.43
2019-02-19T01:09:53.967Z,66.43
2019-02-19T01:10:27.932Z,66.47
2019-02-19T01:11:00.385Z,66.50
2019-02-19T01:11:31.592Z,66.47
2019-02-19T01:12:02.795Z,66.47
2019-02-19T01:12:34.052Z,66.52
2019-02-19T01:13:05.300Z,66.58
2019-02-19T01:13:36.517Z,66.58
2019-02-19T01:14:08.850Z,66.62
2019-02-19T01:14:40.049Z,66.64
2019-02-19T01:15:11.320Z,66.73
2019-02-19T01:15:42.833Z,66.88
2019-02-19T01:16:14.047Z,66.99
2019-02-19T01:16:47.984Z,67.33
2019-02-19T01:17:20.364Z,67.33
2019-02-19T01:17:56.323Z,67.26
2019-02-19T01:18:27.521Z,67.26
2019-02-19T01:19:01.851Z,67.20
2019-02-19T01:19:41.863Z,67.12
2019-02-19T01:20:13.130Z,67.09
2019-02-19T01:20:44.339Z,66.93
2019-02-19T01:21:18.222Z,66.97
2019-02-19T01:21:49.522Z,67.02
2019-02-19T01:22:20.788Z,67.03
2019-02-19T01:22:52.023Z,67.06
2019-02-19T01:23:23.224Z,67.10
2019-02-19T01:23:54.433Z,67.12
2019-02-19T01:24:25.668Z,67.16
2019-02-19T01:24:56.950Z,67.22
2019-02-19T01:25:28.177Z,67.22
2019-02-19T01:25:59.444Z,67.24
2019-02-19T01:26:30.704Z,67.24
2019-02-19T01:27:01.904Z,67.28
2019-02-19T01:27:33.099Z,67.32
2019-02-19T01:28:04.323Z,67.37
2019-02-19T01:28:35.531Z,67.38
2019-02-19T01:29:06.733Z,67.41
2019-02-19T01:29:37.965Z,67.38
2019-02-19T01:30:09.165Z,67.50
2019-02-19T01:30:40.403Z,67.54
2019-02-19T01:31:11.594Z,67.48
2019-02-19T01:31:42.860Z,67.41
2019-02-19T01:32:14.082Z,67.38
2019-02-19T01:32:45.296Z,67.39
2019-02-19T01:33:16.507Z,67.50
2019-02-19T01:33:47.717Z,67.58
2019-02-19T01:34:18.925Z,67.68
2019-02-19T01:34:50.138Z,67.84
2019-02-19T01:35:21.361Z,67.89
2019-02-19T01:35:52.561Z,67.83
2019-02-19T01:36:23.775Z,67.87
2019-02-19T01:36:55.025Z,67.89
2019-02-19T01:37:26.245Z,67.94
2019-02-19T01:37:57.458Z,68.00
2019-02-19T01:38:28.709Z,68.04
2019-02-19T01:39:00.102Z,68.11
2019-02-19T01:39:31.310Z,68.20
2019-02-19T01:40:02.523Z,68.29
2019-02-19T01:40:33.761Z,68.28
2019-02-19T01:41:04.985Z,68.39
2019-02-19T01:41:36.195Z,68.44
2019-02-19T01:42:07.414Z,68.51
2019-02-19T01:42:38.636Z,68.56
2019-02-19T01:43:09.881Z,68.60
2019-02-19T01:43:41.093Z,68.65
2019-02-19T01:44:12.295Z,68.70
2019-02-19T01:44:43.503Z,68.73
2019-02-19T01:45:14.738Z,68.76
2019-02-19T01:45:45.979Z,68.81
2019-02-19T01:46:17.188Z,68.89
2019-02-19T01:46:48.403Z,68.95
2019-02-19T01:47:19.618Z,69.07
2019-02-19T01:47:50.839Z,69.07
2019-02-19T01:48:22.099Z,69.10
2019-02-19T01:48:53.328Z,69.34
2019-02-19T01:49:24.539Z,69.53
2019-02-19T01:49:55.776Z,69.53
2019-02-19T01:50:26.999Z,69.55
2019-02-19T01:50:58.311Z,69.48
2019-02-19T01:51:29.515Z,69.40
2019-02-19T01:52:00.719Z,69.41
2019-02-19T01:52:31.947Z,69.46
2019-02-19T01:53:03.174Z,69.41
2019-02-19T01:53:34.378Z,69.42
2019-02-19T01:54:05.607Z,69.39
2019-02-19T01:54:36.833Z,69.33
2019-02-19T01:55:08.056Z,69.32
2019-02-19T01:55:39.254Z,69.46
2019-02-19T01:56:10.505Z,69.48
2019-02-19T01:56:41.721Z,69.54
2019-02-19T01:57:12.919Z,69.58
2019-02-19T01:57:44.163Z,69.62
2019-02-19T01:58:15.392Z,69.59
2019-02-19T01:58:46.600Z,69.59
2019-02-19T01:59:17.812Z,69.62
2019-02-19T01:59:49.022Z,69.64
2019-02-19T02:00:20.266Z,69.74
2019-02-19T02:00:51.478Z,69.81
2019-02-19T02:01:22.699Z,69.92
2019-02-19T02:01:53.923Z,70.00
2019-02-19T02:02:25.133Z,70.05
2019-02-19T02:02:56.335Z,70.09
2019-02-19T02:03:27.639Z,70.37
2019-02-19T02:03:58.845Z,70.56
2019-02-19T02:04:30.059Z,70.54
2019-02-19T02:05:01.306Z,70.58
2019-02-19T02:05:32.517Z,70.58
2019-02-19T02:06:03.784Z,70.57
2019-02-19T02:06:34.993Z,70.66
2019-02-19T02:07:06.224Z,70.64
2019-02-19T02:07:37.418Z,70.67
2019-02-19T02:08:08.640Z,70.69
2019-02-19T02:08:39.867Z,70.66
2019-02-19T02:09:11.080Z,70.73
2019-02-19T02:09:42.300Z,70.70
2019-02-19T02:10:13.595Z,70.59
2019-02-19T02:10:44.817Z,70.42
2019-02-19T02:11:16.105Z,70.15
2019-02-19T02:11:47.370Z,70.00
2019-02-19T02:12:18.579Z,69.90
2019-02-19T02:12:49.753Z,69.85
2019-02-19T02:13:20.987Z,69.74
2019-02-19T02:13:52.250Z,69.66
2019-02-19T02:14:23.448Z,69.62
2019-02-19T02:14:54.669Z,69.60
2019-02-19T02:15:25.876Z,69.65
2019-02-19T02:15:57.078Z,69.70
2019-02-19T02:16:28.294Z,69.78
2019-02-19T02:16:59.547Z,69.82
2019-02-19T02:17:30.754Z,69.87
2019-02-19T02:18:01.987Z,69.94
2019-02-19T02:18:33.182Z,69.97
2019-02-19T02:19:04.402Z,70.13
2019-02-19T02:19:35.635Z,70.21
2019-02-19T02:20:06.836Z,70.25
2019-02-19T02:20:38.042Z,70.39
2019-02-19T02:21:09.297Z,70.48
2019-02-19T02:21:40.540Z,70.61
2019-02-19T02:22:11.756Z,70.74
2019-02-19T02:22:42.954Z,70.82
2019-02-19T02:23:14.201Z,70.84
2019-02-19T02:23:45.410Z,70.84
2019-02-19T02:24:16.620Z,70.82
2019-02-19T02:24:47.824Z,70.76
2019-02-19T02:25:19.048Z,70.80
2019-02-19T02:25:50.261Z,70.83
2019-02-19T02:26:21.471Z,70.86
2019-02-19T02:26:52.722Z,70.93
2019-02-19T02:27:24.008Z,71.20
2019-02-19T02:27:55.290Z,71.23
2019-02-19T02:28:26.535Z,71.13
2019-02-19T02:28:57.744Z,71.04
2019-02-19T02:29:28.959Z,71.00
2019-02-19T02:30:00.346Z,70.99
2019-02-19T02:30:31.627Z,71.03
2019-02-19T02:31:02.831Z,71.00
2019-02-19T02:31:34.046Z,70.92
2019-02-19T02:32:05.256Z,70.87
2019-02-19T02:32:36.465Z,70.88
2019-02-19T02:33:07.684Z,70.84
2019-02-19T02:33:38.895Z,70.80
2019-02-19T02:34:10.104Z,70.79
2019-02-19T02:34:41.309Z,70.69
2019-02-19T02:35:12.559Z,70.63
2019-02-19T02:35:43.805Z,70.61
2019-02-19T02:36:15.014Z,70.65
2019-02-19T02:36:46.226Z,70.65
2019-02-19T02:37:17.427Z,70.69
2019-02-19T02:37:48.672Z,70.65
2019-02-19T02:38:19.884Z,70.57
2019-02-19T02:38:51.078Z,70.61
2019-02-19T02:39:22.300Z,70.64
2019-02-19T02:39:53.505Z,70.65
2019-02-19T02:40:24.705Z,70.74
2019-02-19T02:40:55.969Z,70.79
2019-02-19T02:41:27.174Z,70.77
2019-02-19T02:41:58.388Z,70.95
2019-02-19T02:42:29.597Z,71.09
2019-02-19T02:43:00.883Z,71.05
2019-02-19T02:43:32.062Z,71.00
2019-02-19T02:44:03.287Z,71.05
2019-02-19T02:44:34.494Z,71.08
2019-02-19T02:45:05.721Z,71.09
2019-02-19T02:45:36.927Z,71.18
2019-02-19T02:46:08.151Z,71.14
2019-02-19T02:46:39.340Z,71.08
2019-02-19T02:47:10.552Z,71.04
2019-02-19T02:47:41.763Z,71.00
2019-02-19T02:48:13.023Z,70.97
2019-02-19T02:48:44.234Z,70.94
2019-02-19T02:49:15.460Z,70.89
2019-02-19T02:49:46.676Z,70.88
2019-02-19T02:50:17.906Z,70.83
2019-02-19T02:50:49.108Z,70.77
2019-02-19T02:51:20.335Z,70.73
2019-02-19T02:51:51.585Z,70.79
2019-02-19T02:52:22.881Z,71.03
2019-02-19T02:52:54.111Z,70.95
2019-02-19T02:53:25.332Z,70.95
2019-02-19T02:53:56.535Z,71.04
2019-02-19T02:54:27.750Z,71.11
2019-02-19T02:54:58.968Z,71.12
2019-02-19T02:55:30.178Z,71.08
2019-02-19T02:56:01.403Z,71.06
2019-02-19T02:56:32.621Z,71.04
2019-02-19T02:57:03.887Z,71.01
2019-02-19T02:57:35.101Z,71.07
2019-02-19T02:58:06.341Z,71.11
2019-02-19T02:58:37.574Z,71.11
2019-02-19T02:59:08.803Z,71.08
2019-02-19T02:59:40.015Z,71.10
2019-02-19T03:00:11.239Z,71.07
2019-02-19T03:00:42.441Z,71.05
2019-02-19T03:01:13.710Z,71.11
2019-02-19T03:01:44.948Z,71.15
2019-02-19T03:02:16.162Z,71.16
2019-02-19T03:02:47.465Z,71.09
2019-02-19T03:03:19.631Z,71.11
2019-02-19T03:03:50.839Z,71.17
2019-02-19T03:04:22.121Z,71.19
2019-02-19T03:04:53.341Z,71.22
2019-02-19T03:05:25.374Z,71.27
2019-02-19T03:05:56.682Z,71.38
2019-02-19T03:06:27.886Z,71.43
2019-02-19T03:06:59.098Z,71.47
2019-02-19T03:07:30.295Z,71.51
2019-02-19T03:08:01.539Z,71.56
2019-02-19T03:08:32.753Z,71.62
2019-02-19T03:09:04.041Z,71.65
2019-02-19T03:09:35.250Z,71.74
2019-02-19T03:10:06.493Z,71.85
2019-02-19T03:10:37.780Z,71.93
2019-02-19T03:11:09.031Z,72.09
2019-02-19T03:11:40.295Z,72.32
2019-02-19T03:12:11.482Z,72.45
2019-02-19T03:12:45.408Z,72.46
2019-02-19T03:13:16.643Z,72.55
2019-02-19T03:13:47.846Z,72.71
2019-02-19T03:14:19.084Z,72.67
2019-02-19T03:14:50.298Z,72.59
2019-02-19T03:15:21.507Z,72.53
2019-02-19T03:16:01.899Z,72.52
2019-02-19T03:16:26.566Z,72.47
2019-02-19T03:16:57.773Z,72.44
2019-02-19T03:17:29.045Z,72.43
2019-02-19T03:18:00.225Z,72.11
2019-02-19T03:18:31.439Z,72.63
2019-02-19T03:19:02.695Z,72.74
2019-02-19T03:19:33.938Z,72.78
2019-02-19T03:20:05.148Z,72.88
2019-02-19T03:20:36.360Z,72.90
2019-02-19T03:21:07.574Z,72.92
2019-02-19T03:21:38.784Z,72.97
2019-02-19T03:22:09.991Z,73.01
2019-02-19T03:22:41.266Z,73.02
2019-02-19T03:23:12.493Z,73.13
2019-02-19T03:23:43.733Z,73.17
2019-02-19T03:24:14.967Z,73.18
2019-02-19T03:24:46.190Z,73.30
2019-02-19T03:25:17.426Z,73.44
2019-02-19T03:25:48.655Z,73.50
2019-02-19T03:26:19.843Z,73.46
2019-02-19T03:26:51.070Z,73.41
2019-02-19T03:27:22.300Z,73.41
2019-02-19T03:27:53.528Z,73.45
2019-02-19T03:28:24.767Z,73.44
2019-02-19T03:28:56.005Z,73.43
2019-02-19T03:29:27.266Z,73.42
2019-02-19T03:29:58.531Z,73.51
2019-02-19T03:30:29.756Z,73.57
2019-02-19T03:31:00.977Z,73.62
2019-02-19T03:31:32.198Z,73.94
2019-02-19T03:32:03.401Z,73.75
2019-02-19T03:32:34.666Z,73.59
2019-02-19T03:33:05.889Z,73.83
2019-02-19T03:33:37.164Z,73.90
2019-02-19T03:34:08.429Z,73.77
2019-02-19T03:34:39.665Z,73.56
2019-02-19T03:35:10.882Z,73.54
2019-02-19T03:35:42.086Z,73.46
2019-02-19T03:36:13.298Z,73.34
2019-02-19T03:36:44.542Z,73.26
2019-02-19T03:37:15.736Z,73.15
2019-02-19T03:37:46.982Z,73.28
2019-02-19T03:38:18.178Z,73.33
2019-02-19T03:38:49.462Z,73.27
2019-02-19T03:39:20.681Z,73.14
2019-02-19T03:39:51.949Z,73.04
2019-02-19T03:40:23.202Z,72.99
2019-02-19T03:40:54.498Z,72.98
2019-02-19T03:41:25.774Z,72.96
2019-02-19T03:41:57.014Z,72.89
2019-02-19T03:42:28.273Z,72.87
2019-02-19T03:42:59.521Z,72.84
2019-02-19T03:43:30.749Z,72.86
2019-02-19T03:44:01.999Z,72.87
2019-02-19T03:44:33.198Z,72.85
2019-02-19T03:45:04.418Z,72.87
2019-02-19T03:45:35.693Z,72.86
2019-02-19T03:46:12.205Z,72.84
2019-02-19T03:46:39.809Z,72.82
2019-02-19T03:47:11.021Z,72.87
2019-02-19T03:47:42.233Z,73.02
2019-02-19T03:48:13.449Z,73.31
2019-02-19T03:48:46.662Z,73.62
2019-02-19T03:49:17.898Z,73.52
2019-02-19T03:49:49.099Z,73.34
2019-02-19T03:50:20.370Z,73.15
2019-02-19T03:50:51.584Z,73.13
2019-02-19T03:51:22.822Z,73.12
2019-02-19T03:51:54.031Z,73.14
2019-02-19T03:52:25.282Z,73.15
2019-02-19T03:52:56.452Z,73.16
2019-02-19T03:53:27.668Z,73.20
2019-02-19T03:53:58.951Z,73.25
2019-02-19T03:54:30.160Z,73.30
2019-02-19T03:55:01.378Z,73.32
2019-02-19T03:55:32.588Z,73.35
2019-02-19T03:56:03.982Z,73.36
2019-02-19T03:56:35.181Z,73.34
2019-02-19T03:57:06.424Z,73.34
2019-02-19T03:57:37.610Z,73.41
2019-02-19T03:58:08.815Z,73.39
2019-02-19T03:58:40.041Z,73.42
2019-02-19T03:59:11.290Z,73.43
2019-02-19T03:59:42.488Z,73.39
2019-02-19T04:00:13.689Z,73.36
2019-02-19T04:00:44.910Z,73.41
2019-02-19T04:01:16.161Z,73.39
2019-02-19T04:01:47.767Z,73.25
2019-02-19T04:02:18.982Z,73.35
2019-02-19T04:02:50.195Z,73.65
2019-02-19T04:03:21.424Z,73.83
2019-02-19T04:03:52.634Z,73.88
2019-02-19T04:04:23.840Z,73.92
2019-02-19T04:04:55.050Z,74.00
2019-02-19T04:05:26.264Z,74.10
2019-02-19T04:05:57.474Z,74.21
2019-02-19T04:06:28.742Z,74.24
2019-02-19T04:06:59.951Z,74.19
2019-02-19T04:07:31.148Z,74.21
2019-02-19T04:08:02.449Z,74.15
2019-02-19T04:08:33.750Z,74.13
2019-02-19T04:09:04.977Z,74.08
2019-02-19T04:09:36.198Z,74.09
2019-02-19T04:10:07.425Z,74.08
2019-02-19T04:10:38.700Z,74.10
2019-02-19T04:11:09.919Z,74.13
2019-02-19T04:11:41.101Z,74.21
2019-02-19T04:12:12.338Z,74.31
2019-02-19T04:12:43.597Z,74.29
2019-02-19T04:13:14.814Z,74.26
2019-02-19T04:13:46.020Z,74.24
2019-02-19T04:14:17.220Z,74.32
2019-02-19T04:14:48.444Z,74.40
2019-02-19T04:15:19.650Z,74.48
2019-02-19T04:15:50.882Z,74.52
2019-02-19T04:16:22.088Z,74.66
2019-02-19T04:16:53.362Z,74.82
2019-02-19T04:17:24.565Z,74.95
2019-02-19T04:17:55.766Z,75.19
2019-02-19T04:18:26.964Z,75.49
2019-02-19T04:18:58.187Z,75.66
2019-02-19T04:19:29.400Z,76.01
2019-02-19T04:20:00.627Z,75.80
2019-02-19T04:20:31.821Z,75.67
2019-02-19T04:21:03.094Z,75.52
2019-02-19T04:21:34.331Z,75.55
2019-02-19T04:22:05.547Z,75.60
2019-02-19T04:22:36.750Z,75.56
2019-02-19T04:23:07.971Z,75.53
2019-02-19T04:23:39.195Z,75.74
2019-02-19T04:24:10.435Z,75.72
2019-02-19T04:24:41.631Z,75.70
2019-02-19T04:25:12.857Z,75.64
2019-02-19T04:25:44.094Z,75.68
2019-02-19T04:26:15.307Z,75.69
2019-02-19T04:26:46.516Z,75.78
2019-02-19T04:27:17.725Z,75.91
2019-02-19T04:27:48.944Z,75.80
2019-02-19T04:28:20.152Z,75.73
2019-02-19T04:28:51.371Z,75.62
2019-02-19T04:29:22.618Z,75.56
2019-02-19T04:29:53.836Z,75.55
2019-02-19T04:30:25.053Z,75.58
2019-02-19T04:30:56.263Z,75.67
2019-02-19T04:31:27.463Z,75.71
2019-02-19T04:31:58.679Z,75.81
2019-02-19T04:32:29.883Z,75.92
2019-02-19T04:33:01.091Z,75.95
2019-02-19T04:33:32.320Z,76.15
2019-02-19T04:34:03.531Z,76.23
2019-02-19T04:34:34.739Z,76.26
2019-02-19T04:35:05.954Z,76.30
2019-02-19T04:35:37.156Z,76.44
2019-02-19T04:36:08.380Z,76.50
2019-02-19T04:36:39.585Z,76.53
2019-02-19T04:37:10.784Z,76.59
2019-02-19T04:37:42.035Z,76.61
2019-02-19T04:38:13.246Z,76.58
2019-02-19T04:38:44.448Z,76.53
2019-02-19T04:39:15.700Z,76.47
2019-02-19T04:39:46.911Z,76.39
2019-02-19T04:40:18.121Z,76.38
2019-02-19T04:40:50.689Z,76.29
2019-02-19T04:41:21.908Z,76.26
2019-02-19T04:41:53.129Z,76.23
2019-02-19T04:42:24.348Z,76.16
2019-02-19T04:42:55.559Z,76.11
2019-02-19T04:43:26.774Z,76.14
2019-02-19T04:43:57.987Z,76.18
2019-02-19T04:44:29.222Z,76.29
2019-02-19T04:45:00.506Z,76.36
2019-02-19T04:45:31.715Z,76.36
2019-02-19T04:46:02.917Z,76.42
2019-02-19T04:46:34.121Z,76.33
2019-02-19T04:47:05.318Z,76.41
2019-02-19T04:47:36.527Z,76.37
2019-02-19T04:48:07.743Z,76.25
2019-02-19T04:48:38.944Z,76.18
2019-02-19T04:49:10.193Z,76.16
2019-02-19T04:49:41.416Z,76.15
2019-02-19T04:50:12.615Z,76.15
2019-02-19T04:50:43.833Z,76.12
2019-02-19T04:51:15.044Z,76.03
2019-02-19T04:51:46.267Z,76.05
2019-02-19T04:52:17.473Z,76.05
2019-02-19T04:52:48.717Z,76.05
2019-02-19T04:53:19.925Z,76.07
2019-02-19T04:53:51.149Z,76.05
2019-02-19T04:54:22.415Z,76.01
2019-02-19T04:54:53.636Z,75.93
2019-02-19T04:55:24.843Z,75.86
2019-02-19T04:55:56.065Z,75.79
2019-02-19T04:56:27.319Z,75.77
2019-02-19T04:56:58.506Z,75.71
2019-02-19T04:57:29.785Z,75.76
2019-02-19T04:58:00.986Z,75.75
2019-02-19T04:58:32.224Z,75.67
2019-02-19T04:59:03.456Z,75.73
2019-02-19T04:59:34.668Z,75.75
2019-02-19T05:00:05.894Z,75.70
2019-02-19T05:00:37.105Z,75.66
2019-02-19T05:01:08.302Z,75.58
2019-02-19T05:01:39.567Z,75.52
2019-02-19T05:02:10.792Z,75.58
2019-02-19T05:02:42.015Z,75.64
2019-02-19T05:03:13.214Z,75.77
2019-02-19T05:03:44.428Z,75.85
2019-02-19T05:04:15.648Z,75.96
2019-02-19T05:04:46.873Z,76.01
2019-02-19T05:05:18.084Z,76.10
2019-02-19T05:05:49.328Z,76.19
2019-02-19T05:06:20.550Z,76.24
2019-02-19T05:06:51.761Z,76.29
2019-02-19T05:07:22.977Z,76.33
2019-02-19T05:07:54.186Z,76.35
2019-02-19T05:08:25.397Z,76.38
2019-02-19T05:08:56.724Z,76.38
2019-02-19T05:09:27.924Z,76.45
2019-02-19T05:10:00.372Z,76.49
2019-02-19T05:10:31.637Z,76.55
2019-02-19T05:11:02.823Z,76.57
2019-02-19T05:11:34.032Z,76.49
2019-02-19T05:12:05.296Z,76.35
2019-02-19T05:12:36.520Z,76.36
2019-02-19T05:13:07.746Z,76.33
2019-02-19T05:13:38.962Z,76.40
2019-02-19T05:14:10.206Z,76.37
2019-02-19T05:14:41.425Z,76.32
2019-02-19T05:15:12.635Z,76.24
2019-02-19T05:15:43.840Z,76.21
2019-02-19T05:16:15.154Z,76.22
2019-02-19T05:16:46.363Z,76.21
2019-02-19T05:17:17.574Z,76.20
2019-02-19T05:17:48.807Z,76.20
2019-02-19T05:18:20.054Z,76.18
2019-02-19T05:18:51.351Z,76.15
2019-02-19T05:19:22.563Z,76.17
2019-02-19T05:19:53.788Z,76.10
2019-02-19T05:20:24.977Z,76.13
2019-02-19T05:20:56.185Z,76.12
2019-02-19T05:21:27.405Z,76.11
2019-02-19T05:21:58.627Z,76.15
2019-02-19T05:22:29.860Z,76.40
2019-02-19T05:23:01.115Z,76.42
2019-02-19T05:23:32.336Z,76.33
2019-02-19T05:24:03.541Z,76.16
2019-02-19T05:24:34.767Z,76.04
2019-02-19T05:25:06.031Z,75.83
2019-02-19T05:25:37.258Z,75.55
2019-02-19T05:26:08.473Z,75.34
2019-02-19T05:26:39.690Z,75.20
2019-02-19T05:27:10.956Z,74.90
2019-02-19T05:27:42.173Z,74.58
2019-02-19T05:28:13.377Z,74.35
2019-02-19T05:28:44.589Z,74.18
2019-02-19T05:29:15.801Z,74.03
2019-02-19T05:29:47.020Z,73.78
2019-02-19T05:30:18.233Z,73.66
2019-02-19T05:30:49.525Z,73.43
2019-02-19T05:31:20.742Z,73.26
2019-02-19T05:31:51.996Z,72.94
2019-02-19T05:32:23.201Z,72.77
2019-02-19T05:32:54.435Z,72.64
2019-02-19T05:33:25.646Z,72.34
2019-02-19T05:33:56.871Z,72.23
2019-02-19T05:34:28.078Z,72.00
2019-02-19T05:34:59.295Z,71.82
2019-02-19T05:35:30.548Z,71.68
2019-02-19T05:36:01.756Z,71.60
2019-02-19T05:36:32.974Z,71.58
2019-02-19T05:37:04.574Z,71.55
2019-02-19T05:37:35.888Z,71.79
2019-02-19T05:38:07.137Z,71.64
2019-02-19T05:38:38.361Z,71.43
2019-02-19T05:39:09.559Z,71.34
2019-02-19T05:39:40.774Z,71.32
2019-02-19T05:40:12.029Z,71.18
2019-02-19T05:40:43.208Z,71.00
2019-02-19T05:41:14.421Z,70.78
2019-02-19T05:41:45.624Z,70.64
2019-02-19T05:42:16.893Z,70.43
2019-02-19T05:42:48.184Z,70.15
2019-02-19T05:43:19.447Z,69.96
2019-02-19T05:43:50.686Z,69.71
2019-02-19T05:44:21.896Z,69.41
2019-02-19T05:44:53.122Z,68.99
2019-02-19T05:45:24.324Z,68.85
2019-02-19T05:45:55.542Z,68.98
2019-02-19T05:46:26.809Z,69.16
2019-02-19T05:46:58.022Z,69.49
2019-02-19T05:47:29.246Z,69.64
2019-02-19T05:48:00.461Z,69.70
2019-02-19T05:48:31.683Z,69.69
2019-02-19T05:49:02.906Z,69.46
2019-02-19T05:49:34.165Z,69.43
2019-02-19T05:50:05.374Z,69.34
2019-02-19T05:50:36.604Z,69.47
2019-02-19T05:51:07.833Z,69.57
2019-02-19T05:51:39.310Z,69.81
2019-02-19T05:52:10.510Z,70.04
2019-02-19T05:52:41.737Z,70.09
2019-02-19T05:53:12.970Z,70.52
2019-02-19T05:53:44.945Z,70.41
2019-02-19T05:54:16.313Z,70.04
2019-02-19T05:54:47.525Z,69.59
2019-02-19T05:55:18.765Z,69.31
2019-02-19T05:55:49.949Z,69.13
2019-02-19T05:56:21.165Z,68.97
2019-02-19T05:56:52.406Z,69.61
2019-02-19T05:57:23.672Z,69.04
2019-02-19T05:57:54.873Z,68.58
2019-02-19T05:58:26.101Z,68.15
2019-02-19T05:58:57.326Z,68.27
2019-02-19T05:59:28.525Z,68.35
2019-02-19T05:59:59.773Z,68.35
2019-02-19T06:00:30.984Z,68.44
2019-02-19T06:01:02.186Z,68.73
2019-02-19T06:01:33.407Z,68.79
2019-02-19T06:02:04.623Z,68.91
2019-02-19T06:02:35.836Z,68.91
2019-02-19T06:03:07.064Z,69.08
2019-02-19T06:03:38.329Z,69.25
2019-02-19T06:04:09.523Z,69.37
2019-02-19T06:04:40.734Z,69.54
2019-02-19T06:05:11.956Z,69.45
2019-02-19T06:05:43.352Z,69.45
2019-02-19T06:06:14.604Z,69.42
2019-02-19T06:06:45.803Z,70.23
2019-02-19T06:07:17.022Z,69.80
2019-02-19T06:07:48.237Z,69.50
2019-02-19T06:08:19.469Z,69.64
2019-02-19T06:08:50.753Z,69.48
2019-02-19T06:09:21.966Z,69.46
2019-02-19T06:09:56.201Z,69.52
2019-02-19T06:10:27.439Z,69.57
2019-02-19T06:10:58.651Z,69.54
2019-02-19T06:11:30.882Z,69.54
2019-02-19T06:12:02.179Z,69.85
2019-02-19T06:12:33.384Z,70.00
2019-02-19T06:13:04.615Z,69.90
2019-02-19T06:13:35.846Z,70.08
2019-02-19T06:14:07.092Z,69.84
2019-02-19T06:14:38.317Z,69.66
2019-02-19T06:15:09.530Z,69.98
2019-02-19T06:15:40.756Z,69.67
2019-02-19T06:16:11.951Z,69.50
2019-02-19T06:16:43.154Z,69.57
2019-02-19T06:17:14.410Z,69.71
2019-02-19T06:17:45.619Z,69.64
2019-02-19T06:18:16.842Z,69.78
2019-02-19T06:18:48.073Z,69.71
2019-02-19T06:19:19.332Z,69.84
2019-02-19T06:19:50.601Z,69.90
2019-02-19T06:20:21.813Z,69.85
2019-02-19T06:20:53.030Z,69.90
2019-02-19T06:21:24.287Z,69.96
2019-02-19T06:21:55.500Z,69.96
2019-02-19T06:22:26.725Z,69.86
2019-02-19T06:22:57.984Z,69.60
2019-02-19T06:23:29.222Z,69.59
2019-02-19T06:24:00.473Z,69.53
2019-02-19T06:24:31.699Z,69.47
2019-02-19T06:25:02.925Z,69.39
2019-02-19T06:25:34.132Z,69.30
2019-02-19T06:26:05.330Z,69.28
2019-02-19T06:26:36.583Z,69.22
2019-02-19T06:27:07.795Z,69.00
2019-02-19T06:27:39.007Z,68.93
2019-02-19T06:28:10.236Z,68.87
2019-02-19T06:28:41.449Z,68.79
2019-02-19T06:29:12.685Z,68.75
2019-02-19T06:29:43.920Z,68.84
2019-02-19T06:30:15.123Z,68.56
2019-02-19T06:30:46.349Z,68.48
2019-02-19T06:31:17.621Z,68.29
2019-02-19T06:31:48.862Z,68.00
2019-02-19T06:32:20.146Z,67.77
2019-02-19T06:32:57.864Z,67.63
2019-02-19T06:33:29.129Z,67.60
2019-02-19T06:34:00.355Z,67.36
2019-02-19T06:34:31.582Z,67.32
2019-02-19T06:35:02.784Z,67.07
2019-02-19T06:35:34.042Z,66.92
2019-02-19T06:36:05.268Z,66.68
2019-02-19T06:36:36.441Z,66.38
2019-02-19T06:37:07.701Z,66.04
2019-02-19T06:37:39.095Z,65.84
2019-02-19T06:38:10.366Z,65.64
2019-02-19T06:38:41.592Z,65.45
2019-02-19T06:39:12.888Z,65.18
2019-02-19T06:39:44.136Z,64.94
2019-02-19T06:40:15.455Z,64.71
2019-02-19T06:40:46.730Z,64.45
2019-02-19T06:41:18.020Z,64.26
2019-02-19T06:41:49.297Z,64.11
2019-02-19T06:42:20.510Z,63.96
2019-02-19T06:42:51.784Z,63.75
2019-02-19T06:43:22.980Z,63.65